Thompson, Illinois
Current Conditions -  °F | °C
As of 1:55 AM on Monday 22 Dec 2014 (Local Time) from KSFY Reporting Station
Overcast Overcast  
Wind Chill: 29°   Ceiling: 3100
Heat Index: 35°   Visibility: 7mi
Dew Point: 31°   Wind: 7mph
Humidity: 87%   Direction: 150°SSE
Pressure: 29.91"   Gusts: NA
Location:  41.9768°N, 90.0511°W
Report Text: KSFY 220755Z AUTO 15006KT 7SM BKN031 BKN041 OVC055 02/00 A2991 RMK AO2 T00161004
Loading
Personal Weather Stations






























Interactive Weather Map New forecast layout! Learn more

10-Day Weather Forecast

Advertisements
Track Severe Weather on mobile